Friday, April 29, 2016
04:05 UTC
  |  Log In   |  Register Free
Airport Search:

Enid Woodring Regional Airport
(KWDG)

FAA data valid effective Mar 31 2016 - May 26 2016 (unless otherwise noted).

 
 
 
 
 
 
 
 
 
 
 
 
 
 
Current Aviation Weather for KWDG

Weather Summary


The most recent METAR observation for WDG was updated at: 12:50 UTC
METAR for KWDG is not available. Closest METAR is for KEND
KWDG  (most recent observation was updatred at 29:03 UTC)
290355Z AUTO 06011G16KT 10SM CLR 16/10 A2992 RMK AO2

KEND  (6.6 nm NE)   (most recent observation was updated at 29:03 UTC)
290358Z AUTO 06009KT 10SM DZ FEW170 17/10 A2991 RMK AO2 DZB0258 SLP125 P0000 T01660098 $

KBKN  (30.6 nm SW)   (most recent observation was updated at 29:03 UTC)
290355Z AUTO 03008KT 10SM FEW046 SCT080 BKN100 16/11 A2998 RMK AO2

TAF for KWDG is not available.
KEND  (6.6 nm NE)   (most recent observation was updatred at 29:00 UTC)
AMD 290000Z 2900/2924 VRB06KT 9999 SCT140 BKN200 QNH2982INS BECMG 2909/2910 08010G15KT 8000 -SHRA BKN025 QNH2977INS TEMPO 2913/2917 10025G35KT 4800 -TSRA BKN015CB TX20/2900Z TN13/2910Z AMD 290000Z LAST NO AMDS AFT 2900 NEXT 2910


GlobalAir.com is loading additional information.
 Current Weather at WDG
61.0 F° (16.0 C°)

Northeast winds at 8.1 mph
Pressure:
29.93 in
Humidity:
72%
Wind:
Northeast at 8.1 mph
Dew Point:
51.8 F° (11.0 C°)
Visibility:
10.00 mi
WDG NOAA Radar




Find All Airport Services Find A Hotel Find A Rental Car Find A Golf Course Find A Restaurant $100 Hamburger



Airport Weather Forecast for KWDG

Translated METAR for KWDG (0355 UTC)
METAR:
KWDG 290355Z AUTO 06011G16KT 10SM CLR 16/10 A2992 RMK AO2
Conditions at:
KWDG (Enid Woodring Rgnl, OK) observed 0355 UTC 29 April 2016
Temperature:
16°C (60.8°F)
Dewpoint:
10°C (50°F) [RH = 67.6]
Pressure:
29.92 inches Hg (1013.2 mb)
Winds:
from the ENE (060 degrees) at 12.7 mph (11 knots: 5.7 m/s)
gusting to 18.4 mph (16 knots: 8.2 m/s)
Visibility:
10 mile(s)
Ceiling:
at least 12,000 feet AGL
Clouds:
Clear below 12,000 feet AGL
Remarks:
site is un-manned
site is automated and HAS a precipitation sensor

Translated TAF for KEND (Vance Afb, OK) (0000 UTC)
TAF text:
KEND 290000Z 2900/2924 VRB06KT 9999 SCT140 BKN200 QNH2982INS BECMG 2909/2910 08010G15KT 8000 -SHRA BKN025 QNH2977INS
Forecast period:
Friday Apr 29 2016 00:00 UTC - Friday Apr 29 2016 24:00 UTC
Forecast type:
FROM: standard forecast or significant change
Winds:
from the E (080 degrees) at 11.5 mph (10 knots: 5.1 m/s)
gusting to 17.3 mph (15 knots: 7.7 m/s)
Visibility:
Ceiling:
20,000 feet AGL
2,500 feet AGL
Clouds:
Scattered Clouds at 14,000 feet AGL
Broken Cloud Cover at 20,000 feet AGL
Broken Cloud Cover at 2,500 feet AGL
Weather:
Light Shower(s) Rain
TAF text:
2913/2917 10025G35KT 4800 -TSRA BKN015CB TX20/2900Z TN13/2910Z 290000Z LAST NO AMDS AFT 2900 NEXT 2910
Forecast period:
Saturday Apr 30 2016 13:00 UTC - Saturday Apr 30 2016 17:00 UTC
Forecast type:
FROM: standard forecast or significant change
Winds:
from the E (100 degrees) at 28.8 mph (25 knots: 12.9 m/s)
gusting to 40.3 mph (35 knots: 18 m/s)
Visibility:
Ceiling:
Clouds:
Weather:
Light Thunderstorm Rain
FBO's on the Field
FBO Company Facility Photos Services Transportation Aviation Fuel Prices: Prices include tax
Catering Weather Repair Courtesy Rental Type 100LL JetA JetA+ MOGAS 8087
 
Enid Woodring Regional Airport

This FBO has not yet been rated
FS:Phillips 66
Last Updated: Apr-14
Login to update fuel prices
SS:
Contact Enid Woodring Regional AirportMore FBO Information
 
Add another FBO Facility Photos Catering Weather Repair Courtesy Rental Type 100LL JetA JetA+ MOGAS 8087
Services Transportation Aviation Fuel Prices: Prices include tax


model-print
model-print
model-print
model-print